Norris, Montana
Current Conditions -  °F | °C
As of 7:24 AM on Saturday 25 Oct 2014 (Local Time) from KBZN Reporting Station
Moderate Fog Moderate Fog  
Wind Chill: 25°   Ceiling: 200
Heat Index: 30°   Visibility: 0.25mi
Dew Point: 29°   Wind: 5mph
Humidity: 96%   Direction: 70°ENE
Pressure: 30.02"   Gusts: NA
Location:  45.57°N, 111.69°W
Report Text: KBZN 251324Z 07004KT 1/4SM FZFG VV002 M01/M02 A3002 RMK AO2 I1001 T10111017
Loading
Personal Weather Stations






























Interactive Weather Map
Tropical Storm Tracking
New forecast layout! Learn more

10-Day Weather Forecast

Advertisements
Track Severe Weather on mobile